메인 페이지
METAR-TAF:

METAR-TAF

공항 :

테드 스티븐스 앵커리지 국제공항

앵커리지, 알래스카, 미국

위도: 61-10-28N, 경도: 149-59-46W, 고도: 44m

현재 날씨관측

예보는 45분 전, 07:53시(UTC)에 발표되었습니다.
서남서3kt
온도 13°C
습도 88%
기압 1025 hPa
시정: 16.1km
고도 6000ft 상공 구름 조금
고도 25000ft 상공 구름 조금

METAR: PANC 200753Z 24003KT 10SM FEW060 FEW250 13/11 A3028 RMK AO2 SLP255 T01280111

시각: 00:38 (08:38 UTC)

예보

예보는 3 시간 8분 전, 05:30시(UTC)에 발표되었습니다.
예보 대상 시간: 20일 06시부터 21일 12시까지 (UTC)
서북서7kt
시정: 10km
맑음

TAF: PANC 200530Z 2006/2112 29007KT P6SM SKC

4,000개 이상의 공항 관측 자료 및 예보 (METAR 및 TAF 보고).

지도상에서 검색 가능한 기상관측소가 노란 점과 빨간 점으로 표시되어 있습니다.

기상관측소 명을 보려면 표시 위로 마우스를 이동하세요.

날씨 관측과 예보를 보려면 클릭하세요.

지도 변경 : 확대하려면 엑스 표시가 있는 녹색 버튼, 축소하려면 빼기 표시가 있는 녹색 버튼, 다음 페이지의 지도를 보려면 녹색 화살표를 클릭하세요.


METAR-TAF: